Time;durP1;ratioP1;P1;durP2;ratioP2;P2;SDS_P1;SDS_P2;PMS_P1;PMS_P2;Temp;Humidity;BMP_temperature;BMP_pressure;BME280_temperature;BME280_humidity;BME280_pressure;Samples;Min_cycle;Max_cycle;Signal;HPM_P1;HPM_P2
2023/09/15 00:02:22;;;;;;;;;8.67;8.67;;;;;;;;6309744;22;45208;-73
2023/09/15 00:04:47;;;;;;;;;10.33;9.00;;;;;;;;6281912;22;45899;-73
2023/09/15 00:07:14;;;;;;;;;10.00;10.00;;;;;;;;6307476;22;46368;-73
2023/09/15 00:09:40;;;;;;;;;7.67;7.67;;;;;;;;6309879;22;45293;-73
2023/09/15 00:12:08;;;;;;;;;7.67;7.67;;;;;;;;6309287;22;45200;-73
2023/09/15 00:14:34;;;;;;;;;10.33;9.67;;;;;;;;6309862;22;45159;-72
2023/09/15 00:17:00;;;;;;;;;7.00;6.67;;;;;;;;6309337;22;45261;-73
2023/09/15 00:19:25;;;;;;;;;9.00;9.00;;;;;;;;6281730;22;45298;-73
2023/09/15 00:21:51;;;;;;;;;10.67;10.00;;;;;;;;6308656;22;45218;-73
2023/09/15 00:24:16;;;;;;;;;8.33;7.67;;;;;;;;6309767;22;45213;-73
2023/09/15 00:26:43;;;;;;;;;10.00;9.00;;;;;;;;6308655;22;45917;-73
2023/09/15 00:29:08;;;;;;;;;10.33;9.00;;;;;;;;6309791;22;45229;-73
2023/09/15 00:31:34;;;;;;;;;7.33;6.67;;;;;;;;6309551;22;45294;-73
2023/09/15 00:33:59;;;;;;;;;11.00;9.00;;;;;;;;6309822;22;45600;-73
2023/09/15 00:36:24;;;;;;;;;8.67;7.67;;;;;;;;6281023;22;47508;-73
2023/09/15 00:38:50;;;;;;;;;9.00;9.00;;;;;;;;6309802;22;45299;-73
2023/09/15 00:41:15;;;;;;;;;8.33;5.67;;;;;;;;6309221;22;45200;-73
2023/09/15 00:43:40;;;;;;;;;9.33;8.00;;;;;;;;6309019;22;45200;-72
2023/09/15 00:46:06;;;;;;;;;8.33;7.67;;;;;;;;6308813;22;46214;-73
2023/09/15 00:48:32;;;;;;;;;8.67;8.00;;;;;;;;6309588;22;45255;-72
2023/09/15 00:50:57;;;;;;;;;7.33;7.33;;;;;;;;6309457;22;45295;-72
2023/09/15 00:53:22;;;;;;;;;11.67;10.67;;;;;;;;6309477;22;45588;-73
2023/09/15 00:55:49;;;;;;;;;7.67;7.67;;;;;;;;6281063;22;46373;-72
2023/09/15 00:58:18;;;;;;;;;8.33;7.33;;;;;;;;6309429;22;45286;-73
2023/09/15 01:00:43;;;;;;;;;9.00;7.00;;;;;;;;6309499;22;45189;-73
2023/09/15 01:03:10;;;;;;;;;12.33;9.00;;;;;;;;6309181;22;45293;-72
2023/09/15 01:05:36;;;;;;;;;10.00;8.00;;;;;;;;6309400;22;46536;-73
2023/09/15 01:08:02;;;;;;;;;11.67;8.67;;;;;;;;6309263;22;45953;-72
2023/09/15 01:10:28;;;;;;;;;9.67;5.67;;;;;;;;6308589;22;45255;-72
2023/09/15 01:12:54;;;;;;;;;8.00;8.00;;;;;;;;6309030;22;45365;-72
2023/09/15 01:15:24;;;;;;;;;10.33;8.33;;;;;;;;6280942;22;47135;-73
2023/09/15 01:17:54;;;;;;;;;10.00;8.00;;;;;;;;6309020;22;45147;-72
2023/09/15 01:20:38;;;;;;;;;8.33;8.33;;;;;;;;6309848;22;45300;-73
2023/09/15 01:23:09;;;;;;;;;9.33;9.33;;;;;;;;6309113;22;45836;-73
2023/09/15 01:25:47;;;;;;;;;9.67;7.00;;;;;;;;6280889;22;45316;-73
2023/09/15 01:28:28;;;;;;;;;8.00;8.00;;;;;;;;6309083;22;45204;-73
2023/09/15 01:30:54;;;;;;;;;9.33;9.33;;;;;;;;6309382;22;45156;-73
2023/09/15 01:33:19;;;;;;;;;7.67;7.67;;;;;;;;6307469;22;45182;-73
2023/09/15 01:35:45;;;;;;;;;11.00;9.33;;;;;;;;6309184;22;45773;-72
2023/09/15 01:38:10;;;;;;;;;11.00;9.33;;;;;;;;6309101;22;45295;-72
2023/09/15 01:40:37;;;;;;;;;8.33;8.33;;;;;;;;6309368;22;45196;-73
2023/09/15 01:43:03;;;;;;;;;8.33;7.33;;;;;;;;6308059;22;45443;-72
2023/09/15 01:45:28;;;;;;;;;8.67;8.67;;;;;;;;6309124;22;45265;-73
2023/09/15 01:47:53;;;;;;;;;10.00;8.67;;;;;;;;6308860;22;45409;-73
2023/09/15 01:50:19;;;;;;;;;7.67;7.67;;;;;;;;6308959;22;45281;-73
2023/09/15 01:52:45;;;;;;;;;8.00;6.67;;;;;;;;6308404;22;45408;-72
2023/09/15 01:55:10;;;;;;;;;9.67;7.00;;;;;;;;6308860;22;45136;-72
2023/09/15 01:57:36;;;;;;;;;12.33;8.67;;;;;;;;6280202;22;45292;-72
2023/09/15 02:00:01;;;;;;;;;9.67;9.33;;;;;;;;6280947;22;45106;-72
2023/09/15 02:02:26;;;;;;;;;8.00;7.00;;;;;;;;6280573;22;45795;-72
2023/09/15 02:04:51;;;;;;;;;12.33;9.67;;;;;;;;6309278;22;45262;-72
2023/09/15 02:07:17;;;;;;;;;9.33;9.33;;;;;;;;6308995;22;45231;-72
2023/09/15 02:09:42;;;;;;;;;10.67;7.33;;;;;;;;6309302;22;45521;-72
2023/09/15 02:12:07;;;;;;;;;8.33;8.33;;;;;;;;6308723;22;45224;-72
2023/09/15 02:14:33;;;;;;;;;9.33;9.33;;;;;;;;6280537;22;47339;-72
2023/09/15 02:16:59;;;;;;;;;7.67;7.33;;;;;;;;6308893;22;45299;-72
2023/09/15 02:19:25;;;;;;;;;9.00;9.00;;;;;;;;6309439;22;45402;-72
2023/09/15 02:21:50;;;;;;;;;9.00;8.00;;;;;;;;6308703;22;45459;-72
2023/09/15 02:24:16;;;;;;;;;10.33;10.33;;;;;;;;6309247;22;46089;-72
2023/09/15 02:26:41;;;;;;;;;10.67;10.00;;;;;;;;6280629;22;45385;-72
2023/09/15 02:29:06;;;;;;;;;8.00;8.00;;;;;;;;6309062;22;45322;-72
2023/09/15 02:31:31;;;;;;;;;12.00;10.00;;;;;;;;6308645;22;45293;-72
2023/09/15 02:33:59;;;;;;;;;13.00;9.33;;;;;;;;6309155;22;45250;-74
2023/09/15 02:36:25;;;;;;;;;10.00;9.00;;;;;;;;6308564;22;45360;-73
2023/09/15 02:38:50;;;;;;;;;10.33;9.33;;;;;;;;6308879;22;45167;-73
2023/09/15 02:41:15;;;;;;;;;9.67;9.67;;;;;;;;6306601;22;45426;-73
2023/09/15 02:43:40;;;;;;;;;8.67;8.33;;;;;;;;6307956;22;45094;-73
2023/09/15 02:46:06;;;;;;;;;10.00;10.00;;;;;;;;6309065;22;45351;-72
2023/09/15 02:48:31;;;;;;;;;9.33;8.00;;;;;;;;6310284;22;45290;-72
2023/09/15 02:50:57;;;;;;;;;9.00;8.67;;;;;;;;6309333;22;45228;-73
2023/09/15 02:53:22;;;;;;;;;10.67;9.33;;;;;;;;6281266;22;47589;-73
2023/09/15 02:55:56;;;;;;;;;8.00;8.00;;;;;;;;6309471;22;45143;-73
2023/09/15 02:58:21;;;;;;;;;8.00;7.00;;;;;;;;6310298;22;45165;-73
2023/09/15 03:00:48;;;;;;;;;9.33;8.00;;;;;;;;6280551;22;46819;-72
2023/09/15 03:03:13;;;;;;;;;8.33;5.67;;;;;;;;6281660;22;47097;-72
2023/09/15 03:05:39;;;;;;;;;9.67;9.33;;;;;;;;6309698;22;45152;-73
2023/09/15 03:08:04;;;;;;;;;9.00;8.00;;;;;;;;6308714;22;45233;-72
2023/09/15 03:10:29;;;;;;;;;8.67;8.67;;;;;;;;6309627;22;45089;-73
2023/09/15 03:12:54;;;;;;;;;9.67;9.67;;;;;;;;6281112;22;46848;-73
2023/09/15 03:15:19;;;;;;;;;10.67;9.67;;;;;;;;6281175;22;45489;-73
2023/09/15 03:17:45;;;;;;;;;10.67;9.33;;;;;;;;6310125;22;45370;-72
2023/09/15 03:20:15;;;;;;;;;9.33;7.33;;;;;;;;6309886;22;45288;-73
2023/09/15 03:22:41;;;;;;;;;9.67;7.33;;;;;;;;6281333;22;47071;-73
2023/09/15 03:25:06;;;;;;;;;12.00;9.00;;;;;;;;6309528;22;45222;-73
2023/09/15 03:27:32;;;;;;;;;9.33;8.33;;;;;;;;6309965;22;45396;-72
2023/09/15 03:29:57;;;;;;;;;8.00;8.00;;;;;;;;6310007;22;45140;-72
2023/09/15 03:32:22;;;;;;;;;11.00;8.67;;;;;;;;6281670;22;47421;-73
2023/09/15 03:34:47;;;;;;;;;10.00;10.00;;;;;;;;6310022;22;45341;-72
2023/09/15 03:37:13;;;;;;;;;10.33;8.67;;;;;;;;6309903;22;45490;-73
2023/09/15 03:39:38;;;;;;;;;10.33;9.33;;;;;;;;6309938;22;45563;-72
2023/09/15 03:42:03;;;;;;;;;10.67;10.67;;;;;;;;6309026;22;46573;-72
2023/09/15 03:44:28;;;;;;;;;9.33;8.67;;;;;;;;6309602;22;45094;-72
2023/09/15 03:46:54;;;;;;;;;10.33;10.33;;;;;;;;6309702;22;45212;-72
2023/09/15 03:49:19;;;;;;;;;10.00;9.00;;;;;;;;6281261;22;46981;-72
2023/09/15 03:51:44;;;;;;;;;11.67;10.67;;;;;;;;6309676;22;45497;-72
2023/09/15 03:54:09;;;;;;;;;8.00;8.00;;;;;;;;6309295;22;45152;-72
2023/09/15 03:56:34;;;;;;;;;12.67;11.67;;;;;;;;6309512;22;45208;-72
2023/09/15 03:59:00;;;;;;;;;9.00;9.00;;;;;;;;6309675;22;45350;-72
2023/09/15 04:01:25;;;;;;;;;10.00;10.00;;;;;;;;6308797;22;45235;-73
2023/09/15 04:03:50;;;;;;;;;13.00;11.33;;;;;;;;6309606;22;45212;-73
2023/09/15 04:06:16;;;;;;;;;11.00;10.00;;;;;;;;6309633;22;45258;-72
2023/09/15 04:08:41;;;;;;;;;8.00;7.00;;;;;;;;6309499;22;45402;-72
2023/09/15 04:11:07;;;;;;;;;10.00;9.67;;;;;;;;6309146;22;45243;-72
2023/09/15 04:13:32;;;;;;;;;15.00;10.67;;;;;;;;6309638;22;45185;-72
2023/09/15 04:15:59;;;;;;;;;10.33;10.33;;;;;;;;6309790;22;45177;-72
2023/09/15 04:18:24;;;;;;;;;11.33;8.00;;;;;;;;6280847;22;46565;-73
2023/09/15 04:20:50;;;;;;;;;12.67;11.00;;;;;;;;6309554;22;45208;-72
2023/09/15 04:23:15;;;;;;;;;9.67;9.67;;;;;;;;6309355;22;45149;-72
2023/09/15 04:25:41;;;;;;;;;9.00;8.00;;;;;;;;6309622;22;45394;-72
2023/09/15 04:28:06;;;;;;;;;9.67;9.00;;;;;;;;6308973;22;45448;-72
2023/09/15 04:30:31;;;;;;;;;11.33;10.33;;;;;;;;6309849;22;45180;-72
2023/09/15 04:32:58;;;;;;;;;12.33;11.00;;;;;;;;6309192;22;45346;-72
2023/09/15 04:35:24;;;;;;;;;8.67;8.67;;;;;;;;6309971;22;45149;-72
2023/09/15 04:37:49;;;;;;;;;10.67;10.33;;;;;;;;6309290;22;45227;-72
2023/09/15 04:40:15;;;;;;;;;8.33;8.33;;;;;;;;6309416;22;46118;-72
2023/09/15 04:42:40;;;;;;;;;11.33;9.67;;;;;;;;6307846;22;45382;-72
2023/09/15 04:45:06;;;;;;;;;11.00;11.00;;;;;;;;6309869;22;45256;-72
2023/09/15 04:47:33;;;;;;;;;9.33;9.33;;;;;;;;6309264;22;45255;-72
2023/09/15 04:49:58;;;;;;;;;10.00;10.00;;;;;;;;6308953;22;45213;-72
2023/09/15 04:52:24;;;;;;;;;10.67;9.00;;;;;;;;6308577;22;45266;-72
2023/09/15 04:54:49;;;;;;;;;13.00;10.00;;;;;;;;6308358;22;45293;-72
2023/09/15 04:57:14;;;;;;;;;9.33;9.00;;;;;;;;6308941;22;45299;-73
2023/09/15 04:59:39;;;;;;;;;9.00;9.00;;;;;;;;6309636;22;45314;-73
2023/09/15 05:02:07;;;;;;;;;11.33;11.33;;;;;;;;6309132;22;45228;-72
2023/09/15 05:04:32;;;;;;;;;12.00;11.00;;;;;;;;6309627;22;45237;-72
2023/09/15 05:06:57;;;;;;;;;11.67;11.67;;;;;;;;6308820;22;45227;-72
2023/09/15 05:09:22;;;;;;;;;12.67;11.00;;;;;;;;6308975;22;46041;-72
2023/09/15 05:11:48;;;;;;;;;10.00;10.00;;;;;;;;6280914;22;45228;-73
2023/09/15 05:14:13;;;;;;;;;9.00;9.00;;;;;;;;6281551;22;45212;-74
2023/09/15 05:16:38;;;;;;;;;14.00;11.67;;;;;;;;6309143;22;45168;-74
2023/09/15 05:19:03;;;;;;;;;12.00;10.00;;;;;;;;6309618;22;46385;-74
2023/09/15 05:21:29;;;;;;;;;7.33;7.33;;;;;;;;6309290;22;45146;-74
2023/09/15 05:23:54;;;;;;;;;12.00;10.67;;;;;;;;6309625;22;45407;-73
2023/09/15 05:26:19;;;;;;;;;9.00;9.00;;;;;;;;6308942;22;45204;-72
2023/09/15 05:28:44;;;;;;;;;12.00;11.00;;;;;;;;6309412;22;45201;-74
2023/09/15 05:31:12;;;;;;;;;10.67;10.67;;;;;;;;6309375;22;45353;-73
2023/09/15 05:33:37;;;;;;;;;11.00;10.00;;;;;;;;6309297;22;45336;-74
2023/09/15 05:36:02;;;;;;;;;10.33;10.33;;;;;;;;6308806;22;45295;-74
2023/09/15 05:38:27;;;;;;;;;14.33;13.00;;;;;;;;6309270;22;46023;-73
2023/09/15 05:40:52;;;;;;;;;11.33;11.33;;;;;;;;6308895;22;45281;-74
2023/09/15 05:43:18;;;;;;;;;17.33;16.00;;;;;;;;6309021;22;45208;-73
2023/09/15 05:45:47;;;;;;;;;12.67;10.00;;;;;;;;6307406;22;45374;-74
2023/09/15 05:48:17;;;;;;;;;13.00;13.00;;;;;;;;6307780;22;46988;-73
2023/09/15 05:50:43;;;;;;;;;12.67;11.67;;;;;;;;6305803;22;45351;-73
2023/09/15 05:53:08;;;;;;;;;14.33;13.00;;;;;;;;6304425;22;45386;-73
2023/09/15 05:55:33;;;;;;;;;12.00;11.00;;;;;;;;6305023;22;45587;-73
2023/09/15 05:57:58;;;;;;;;;13.67;13.00;;;;;;;;6305421;22;45287;-73
2023/09/15 06:00:24;;;;;;;;;14.00;12.00;;;;;;;;6306283;22;45359;-73
2023/09/15 06:02:49;;;;;;;;;16.33;15.67;;;;;;;;6305411;22;45236;-73
2023/09/15 06:05:15;;;;;;;;;12.00;12.00;;;;;;;;6305219;22;45307;-74
2023/09/15 06:07:41;;;;;;;;;13.00;12.00;;;;;;;;6276856;22;47041;-73
2023/09/15 06:10:06;;;;;;;;;10.33;10.33;;;;;;;;6305678;22;45276;-73
2023/09/15 06:12:31;;;;;;;;;12.33;12.00;;;;;;;;6306197;22;44747;-75
2023/09/15 06:14:57;;;;;;;;;16.67;13.33;;;;;;;;6305587;22;45655;-74
2023/09/15 06:17:22;;;;;;;;;11.00;11.00;;;;;;;;6306021;22;45567;-75
2023/09/15 06:19:48;;;;;;;;;16.67;12.67;;;;;;;;6306084;22;45193;-75
2023/09/15 06:22:13;;;;;;;;;13.00;13.00;;;;;;;;6305978;22;45275;-74
2023/09/15 06:24:38;;;;;;;;;15.67;13.00;;;;;;;;6305010;22;45327;-74
2023/09/15 06:27:04;;;;;;;;;12.67;11.67;;;;;;;;6304407;22;45333;-74
2023/09/15 06:29:29;;;;;;;;;14.67;14.33;;;;;;;;6305877;22;45280;-76
2023/09/15 06:31:54;;;;;;;;;15.00;13.67;;;;;;;;6306542;22;45495;-76
2023/09/15 06:34:19;;;;;;;;;14.00;13.00;;;;;;;;6305637;22;45268;-75
2023/09/15 06:36:45;;;;;;;;;11.67;11.67;;;;;;;;6305939;22;45385;-75
2023/09/15 06:39:10;;;;;;;;;13.33;13.33;;;;;;;;6306009;22;45389;-75
2023/09/15 06:41:35;;;;;;;;;12.67;12.00;;;;;;;;6305210;22;45423;-74
2023/09/15 06:44:00;;;;;;;;;13.33;13.33;;;;;;;;6304812;22;45355;-75
2023/09/15 06:46:26;;;;;;;;;13.00;13.00;;;;;;;;6305298;22;45314;-75
2023/09/15 06:48:52;;;;;;;;;12.67;11.67;;;;;;;;6305057;22;45277;-74
2023/09/15 06:51:17;;;;;;;;;16.00;15.00;;;;;;;;6304703;22;45320;-74
2023/09/15 06:53:42;;;;;;;;;14.67;13.00;;;;;;;;6305712;22;45326;-75
2023/09/15 06:56:07;;;;;;;;;14.33;13.00;;;;;;;;6275890;22;47106;-75
2023/09/15 06:58:32;;;;;;;;;16.67;15.00;;;;;;;;6305797;22;45192;-74
2023/09/15 07:00:58;;;;;;;;;22.00;22.00;;;;;;;;6306596;22;45255;-75
2023/09/15 07:03:24;;;;;;;;;12.00;11.67;;;;;;;;6277929;22;45743;-74
2023/09/15 07:05:50;;;;;;;;;18.33;17.33;;;;;;;;6305002;22;45836;-73
2023/09/15 07:08:15;;;;;;;;;16.67;16.33;;;;;;;;6306795;22;45422;-74
2023/09/15 07:10:40;;;;;;;;;16.33;14.33;;;;;;;;6308306;22;45434;-74
2023/09/15 07:13:05;;;;;;;;;13.33;13.00;;;;;;;;6307872;22;45426;-75
2023/09/15 07:15:34;;;;;;;;;18.00;14.00;;;;;;;;6307657;22;45188;-75
2023/09/15 07:17:59;;;;;;;;;14.67;13.00;;;;;;;;6307076;22;45219;-74
2023/09/15 07:20:25;;;;;;;;;16.00;13.67;;;;;;;;6308254;22;45564;-77
2023/09/15 07:22:50;;;;;;;;;16.33;14.67;;;;;;;;6307821;22;45274;-73
2023/09/15 07:25:15;;;;;;;;;14.00;14.00;;;;;;;;6307485;22;46066;-74
2023/09/15 07:27:40;;;;;;;;;15.33;15.33;;;;;;;;6278702;22;45232;-70
2023/09/15 07:30:06;;;;;;;;;17.33;14.00;;;;;;;;6307240;22;45440;-74
2023/09/15 07:32:31;;;;;;;;;15.00;15.00;;;;;;;;6305999;22;45453;-74
2023/09/15 07:34:56;;;;;;;;;17.33;13.33;;;;;;;;6307168;22;45346;-74
2023/09/15 07:37:21;;;;;;;;;14.33;13.00;;;;;;;;6304759;22;45516;-74
2023/09/15 07:39:47;;;;;;;;;17.33;11.33;;;;;;;;6306738;22;45305;-74
2023/09/15 07:42:12;;;;;;;;;13.33;11.67;;;;;;;;6277818;22;45587;-74
2023/09/15 07:44:40;;;;;;;;;15.33;15.33;;;;;;;;6306620;22;45389;-74
2023/09/15 07:47:06;;;;;;;;;17.67;15.33;;;;;;;;6278413;22;45355;-74
2023/09/15 07:49:32;;;;;;;;;21.33;15.33;;;;;;;;6306253;22;45509;-77
2023/09/15 07:51:57;;;;;;;;;16.00;13.00;;;;;;;;6278122;22;45660;-77
2023/09/15 07:54:22;;;;;;;;;17.33;13.67;;;;;;;;6307110;22;45542;-77
2023/09/15 07:56:47;;;;;;;;;8.75;8.25;;;;;;;;6304564;22;45251;-75
2023/09/15 07:59:14;;;;;;;;;13.33;12.33;;;;;;;;6306655;22;45397;-75
2023/09/15 08:01:40;;;;;;;;;9.33;9.33;;;;;;;;6306505;22;45396;-75
2023/09/15 08:04:05;;;;;;;;;16.33;12.00;;;;;;;;6306297;22;46692;-75
2023/09/15 08:06:30;;;;;;;;;11.00;9.00;;;;;;;;6277858;22;45256;-74
2023/09/15 08:08:56;;;;;;;;;11.75;10.50;;;;;;;;6278183;22;45300;-75
2023/09/15 08:11:21;;;;;;;;;10.25;8.75;;;;;;;;6304465;22;45111;-74
2023/09/15 08:13:46;;;;;;;;;12.25;11.50;;;;;;;;6306600;22;46654;-74
2023/09/15 08:16:11;;;;;;;;;10.75;10.75;;;;;;;;6306511;22;45290;-76
2023/09/15 08:18:36;;;;;;;;;13.25;11.75;;;;;;;;6306328;22;45537;-75
2023/09/15 08:21:02;;;;;;;;;11.75;10.00;;;;;;;;6306714;22;45314;-75
2023/09/15 08:23:27;;;;;;;;;10.50;9.25;;;;;;;;6306202;22;45576;-75
2023/09/15 08:25:52;;;;;;;;;16.50;11.50;;;;;;;;6306024;22;45619;-74
2023/09/15 08:28:18;;;;;;;;;11.00;10.25;;;;;;;;6306706;22;45296;-78
2023/09/15 08:30:46;;;;;;;;;9.00;9.00;;;;;;;;6306205;22;45324;-75
2023/09/15 08:33:11;;;;;;;;;13.00;12.75;;;;;;;;6305657;22;46370;-76
2023/09/15 08:35:36;;;;;;;;;12.00;12.00;;;;;;;;6305970;22;45350;-76
2023/09/15 08:38:02;;;;;;;;;12.00;12.00;;;;;;;;6306902;22;45271;-75
2023/09/15 08:40:37;;;;;;;;;11.00;10.00;;;;;;;;6305108;22;45492;-75
2023/09/15 08:43:03;;;;;;;;;10.00;10.00;;;;;;;;6304781;22;46078;-75
2023/09/15 08:45:28;;;;;;;;;11.75;9.25;;;;;;;;6308622;22;45601;-76
2023/09/15 08:47:54;;;;;;;;;11.00;10.00;;;;;;;;6280798;22;45376;-75
2023/09/15 08:50:20;;;;;;;;;14.50;13.75;;;;;;;;6281251;22;46867;-74
2023/09/15 08:52:46;;;;;;;;;14.50;13.50;;;;;;;;6308048;22;45383;-75
2023/09/15 08:55:11;;;;;;;;;14.75;12.50;;;;;;;;6308942;22;45294;-75
2023/09/15 08:57:38;;;;;;;;;13.25;11.25;;;;;;;;6309152;22;45226;-79
2023/09/15 09:00:07;;;;;;;;;13.75;10.50;;;;;;;;6280407;22;45583;-75
2023/09/15 09:02:33;;;;;;;;;9.00;9.00;;;;;;;;6308329;22;46063;-76
2023/09/15 09:04:58;;;;;;;;;11.50;9.00;;;;;;;;6309569;22;45208;-76
2023/09/15 09:07:24;;;;;;;;;11.75;10.25;;;;;;;;6309191;22;45474;-75
2023/09/15 09:09:50;;;;;;;;;11.75;10.00;;;;;;;;6309152;22;45207;-75
2023/09/15 09:12:15;;;;;;;;;13.00;11.00;;;;;;;;6308462;22;46849;-76
2023/09/15 09:14:41;;;;;;;;;8.50;8.50;;;;;;;;6309078;22;45253;-76
2023/09/15 09:17:07;;;;;;;;;10.25;10.25;;;;;;;;6309166;22;45295;-75
2023/09/15 09:19:36;;;;;;;;;11.25;11.25;;;;;;;;6309476;22;45259;-75
2023/09/15 09:22:02;;;;;;;;;11.20;9.80;;;;;;;;6308865;22;45613;-75
2023/09/15 09:24:27;;;;;;;;;9.75;9.75;;;;;;;;6309360;22;45152;-75
2023/09/15 09:26:54;;;;;;;;;11.75;9.00;;;;;;;;6309073;22;45514;-75
2023/09/15 09:29:27;;;;;;;;;10.50;10.00;;;;;;;;6309403;22;45229;-77
2023/09/15 09:31:52;;;;;;;;;14.40;12.00;;;;;;;;6308731;22;45231;-76
2023/09/15 09:34:18;;;;;;;;;16.25;15.00;;;;;;;;6280458;22;45205;-76
2023/09/15 09:36:50;;;;;;;;;10.75;10.50;;;;;;;;6308856;22;45201;-76
2023/09/15 09:39:16;;;;;;;;;14.00;11.60;;;;;;;;6308951;22;45264;-77
2023/09/15 09:41:43;;;;;;;;;13.25;11.50;;;;;;;;6307719;22;46431;-76
2023/09/15 09:44:08;;;;;;;;;11.80;9.60;;;;;;;;6309014;22;45184;-77
2023/09/15 09:46:36;;;;;;;;;13.00;11.00;;;;;;;;6309412;22;45188;-77
2023/09/15 09:49:03;;;;;;;;;13.40;10.40;;;;;;;;6308491;22;45428;-76
2023/09/15 09:51:29;;;;;;;;;14.60;12.80;;;;;;;;6301979;22;46376;-77
2023/09/15 09:53:55;;;;;;;;;14.75;13.25;;;;;;;;6303248;22;45319;-77
2023/09/15 09:56:21;;;;;;;;;11.00;9.40;;;;;;;;6305402;22;45286;-77
2023/09/15 09:58:46;;;;;;;;;14.25;13.75;;;;;;;;6306060;22;45433;-77
2023/09/15 10:01:11;;;;;;;;;13.50;12.50;;;;;;;;6304692;22;45453;-78
2023/09/15 10:03:37;;;;;;;;;10.00;9.25;;;;;;;;6306453;22;45395;-76
2023/09/15 10:06:05;;;;;;;;;12.25;8.75;;;;;;;;6305698;22;45189;-76
2023/09/15 10:08:31;;;;;;;;;10.00;9.00;;;;;;;;6306181;22;45225;-77
2023/09/15 10:10:56;;;;;;;;;10.00;9.00;;;;;;;;6305695;22;45969;-76
2023/09/15 10:13:22;;;;;;;;;11.50;10.25;;;;;;;;6305708;22;45643;-78
2023/09/15 10:15:48;;;;;;;;;11.00;10.25;;;;;;;;6305737;22;45434;-77
2023/09/15 10:18:15;;;;;;;;;9.80;9.80;;;;;;;;6303490;22;45556;-78
2023/09/15 10:20:44;;;;;;;;;14.40;11.00;;;;;;;;6306510;22;45684;-77
2023/09/15 10:23:13;;;;;;;;;8.60;8.00;;;;;;;;6306464;22;45540;-79
2023/09/15 10:25:45;;;;;;;;;10.20;9.20;;;;;;;;6307276;22;45348;-80
2023/09/15 10:28:11;;;;;;;;;10.60;9.00;;;;;;;;6307708;22;45339;-77
2023/09/15 10:30:39;;;;;;;;;12.00;8.50;;;;;;;;6309078;22;46009;-78
2023/09/15 10:33:08;;;;;;;;;8.00;7.60;;;;;;;;6308208;22;45258;-78
2023/09/15 10:35:33;;;;;;;;;11.80;10.00;;;;;;;;6280560;22;45163;-77
2023/09/15 10:38:03;;;;;;;;;8.75;8.75;;;;;;;;6308090;22;45477;-77
2023/09/15 10:40:49;;;;;;;;;9.20;8.00;;;;;;;;6308466;22;45488;-77
2023/09/15 10:43:17;;;;;;;;;13.40;10.20;;;;;;;;6306669;22;45390;-77
2023/09/15 10:45:52;;;;;;;;;10.20;9.80;;;;;;;;6308562;22;45315;-77
2023/09/15 10:48:18;;;;;;;;;10.80;9.20;;;;;;;;6279742;22;46858;-76
2023/09/15 10:50:43;;;;;;;;;10.40;9.60;;;;;;;;6280187;22;47301;-76
2023/09/15 10:53:09;;;;;;;;;9.25;8.50;;;;;;;;6308619;22;45211;-76
2023/09/15 10:55:35;;;;;;;;;8.75;8.75;;;;;;;;6308715;22;45226;-78
2023/09/15 10:58:01;;;;;;;;;9.75;9.50;;;;;;;;6307265;22;45449;-76
2023/09/15 11:00:26;;;;;;;;;7.60;7.00;;;;;;;;6308736;22;45613;-78
2023/09/15 11:02:52;;;;;;;;;9.25;9.25;;;;;;;;6308240;22;45281;-80
2023/09/15 11:05:17;;;;;;;;;9.00;6.50;;;;;;;;6309141;22;45270;-76
2023/09/15 11:07:43;;;;;;;;;7.75;6.25;;;;;;;;6309487;22;45202;-76
2023/09/15 11:10:08;;;;;;;;;7.25;7.25;;;;;;;;6309542;22;45214;-78
2023/09/15 11:12:33;;;;;;;;;5.50;4.00;;;;;;;;6309333;22;45481;-76
2023/09/15 11:15:00;;;;;;;;;9.00;8.00;;;;;;;;6310158;22;45443;-77
2023/09/15 11:17:31;;;;;;;;;7.80;7.00;;;;;;;;6309348;22;45250;-77
2023/09/15 11:19:57;;;;;;;;;6.40;5.00;;;;;;;;6313480;22;45356;-79
2023/09/15 11:22:22;;;;;;;;;7.25;6.75;;;;;;;;6309917;22;45250;-78
2023/09/15 11:24:50;;;;;;;;;7.00;7.00;;;;;;;;6310212;22;45281;-76
2023/09/15 11:27:16;;;;;;;;;8.20;6.60;;;;;;;;6309047;22;45271;-75
2023/09/15 11:29:42;;;;;;;;;9.00;8.00;;;;;;;;6309990;22;45342;-78
2023/09/15 11:32:07;;;;;;;;;6.75;6.75;;;;;;;;6282163;22;45695;-78
2023/09/15 11:34:32;;;;;;;;;6.50;5.75;;;;;;;;6309999;22;45209;-79
2023/09/15 11:36:59;;;;;;;;;7.00;7.00;;;;;;;;6281533;22;45474;-78
2023/09/15 11:39:25;;;;;;;;;7.80;6.80;;;;;;;;6308027;22;46235;-79
2023/09/15 11:41:53;;;;;;;;;11.25;10.25;;;;;;;;6308097;22;45211;-79
2023/09/15 11:44:24;;;;;;;;;8.00;8.00;;;;;;;;6310247;22;45631;-79
2023/09/15 11:46:49;;;;;;;;;8.00;7.00;;;;;;;;6308484;22;45677;-76
2023/09/15 11:49:16;;;;;;;;;7.25;7.25;;;;;;;;6281561;22;48158;-77
2023/09/15 11:51:41;;;;;;;;;12.20;10.00;;;;;;;;6309261;22;45374;-77
2023/09/15 11:54:07;;;;;;;;;6.25;6.25;;;;;;;;6309475;22;45243;-76
2023/09/15 11:56:32;;;;;;;;;6.75;6.75;;;;;;;;6309184;22;45279;-76
2023/09/15 11:58:58;;;;;;;;;6.25;5.25;;;;;;;;6309580;22;45227;-77
2023/09/15 12:01:23;;;;;;;;;6.25;4.75;;;;;;;;6309562;22;45357;-76
2023/09/15 12:03:49;;;;;;;;;4.00;4.00;;;;;;;;6308259;22;45258;-77
2023/09/15 12:06:17;;;;;;;;;4.50;4.25;;;;;;;;6309213;22;45315;-77
2023/09/15 12:08:43;;;;;;;;;2.00;2.00;;;;;;;;6309207;22;46012;-76
2023/09/15 12:11:11;;;;;;;;;4.75;4.75;;;;;;;;6280324;22;45335;-78
2023/09/15 12:13:37;;;;;;;;;3.60;3.00;;;;;;;;6309885;22;45374;-76
2023/09/15 12:16:03;;;;;;;;;3.00;3.00;;;;;;;;6310095;22;45351;-76
2023/09/15 12:18:29;;;;;;;;;3.00;3.00;;;;;;;;6307631;22;45271;-75
2023/09/15 12:20:54;;;;;;;;;4.00;4.00;;;;;;;;6309708;22;45271;-76
2023/09/15 12:23:19;;;;;;;;;3.50;3.50;;;;;;;;6309421;22;45223;-77
2023/09/15 12:25:44;;;;;;;;;3.00;3.00;;;;;;;;6309320;22;45280;-77
2023/09/15 12:28:11;;;;;;;;;4.00;2.00;;;;;;;;6309145;22;45369;-77
2023/09/15 12:30:42;;;;;;;;;3.20;2.60;;;;;;;;6281386;22;45482;-77
2023/09/15 12:33:08;;;;;;;;;11.20;5.40;;;;;;;;6309690;22;45200;-78
2023/09/15 12:35:38;;;;;;;;;3.75;3.75;;;;;;;;6309684;22;45264;-77
2023/09/15 12:38:03;;;;;;;;;3.00;3.00;;;;;;;;6307668;22;45989;-76
2023/09/15 12:40:30;;;;;;;;;3.00;3.00;;;;;;;;6309626;22;45298;-76
2023/09/15 12:42:56;;;;;;;;;5.80;2.60;;;;;;;;6306636;22;45232;-76
2023/09/15 12:45:21;;;;;;;;;9.00;7.25;;;;;;;;6309702;22;45194;-76
2023/09/15 12:47:46;;;;;;;;;4.00;4.00;;;;;;;;6280690;22;46836;-75
2023/09/15 12:50:11;;;;;;;;;3.50;3.50;;;;;;;;6309709;22;45435;-77
2023/09/15 12:52:36;;;;;;;;;3.00;3.00;;;;;;;;6309359;22;45350;-76
2023/09/15 12:55:03;;;;;;;;;4.50;3.00;;;;;;;;6308289;22;45235;-78
2023/09/15 12:57:28;;;;;;;;;3.00;3.00;;;;;;;;6309186;22;45340;-76
2023/09/15 12:59:54;;;;;;;;;4.25;2.75;;;;;;;;6309767;22;45251;-76
2023/09/15 13:02:19;;;;;;;;;3.50;3.00;;;;;;;;6309906;22;45267;-77
2023/09/15 13:04:45;;;;;;;;;2.75;2.00;;;;;;;;6281721;22;46081;-77
2023/09/15 13:07:11;;;;;;;;;1.50;1.50;;;;;;;;6309398;22;45885;-76
2023/09/15 13:09:37;;;;;;;;;3.25;2.00;;;;;;;;6308836;22;45286;-76
2023/09/15 13:12:03;;;;;;;;;2.00;2.00;;;;;;;;6309120;22;45351;-76
2023/09/15 13:14:34;;;;;;;;;5.00;5.00;;;;;;;;6309685;22;45155;-77
2023/09/15 13:16:59;;;;;;;;;3.60;3.00;;;;;;;;6307514;22;45398;-76
2023/09/15 13:19:24;;;;;;;;;4.75;2.75;;;;;;;;6309471;22;45336;-75
2023/09/15 13:21:50;;;;;;;;;3.00;3.00;;;;;;;;6309345;22;45500;-76
2023/09/15 13:24:15;;;;;;;;;3.50;3.25;;;;;;;;6309365;22;45425;-75
2023/09/15 13:26:41;;;;;;;;;4.00;3.00;;;;;;;;6308492;22;45291;-77
2023/09/15 13:29:07;;;;;;;;;2.40;2.40;;;;;;;;6279587;22;45268;-75
2023/09/15 13:31:32;;;;;;;;;3.25;3.25;;;;;;;;6309223;22;45156;-76
2023/09/15 13:33:57;;;;;;;;;4.25;4.25;;;;;;;;6309280;22;45189;-76
2023/09/15 13:36:23;;;;;;;;;5.00;5.00;;;;;;;;6309113;22;46209;-78
2023/09/15 13:38:51;;;;;;;;;4.00;3.00;;;;;;;;6309863;22;45129;-77
2023/09/15 13:41:16;;;;;;;;;3.20;3.20;;;;;;;;6309127;22;45190;-76
2023/09/15 13:43:42;;;;;;;;;2.50;2.00;;;;;;;;6308086;22;45189;-76
2023/09/15 13:46:08;;;;;;;;;3.00;2.75;;;;;;;;6309397;22;45960;-76
2023/09/15 13:48:33;;;;;;;;;3.60;3.60;;;;;;;;6281506;22;45285;-77
2023/09/15 13:50:58;;;;;;;;;3.00;3.00;;;;;;;;6280553;22;45336;-76
2023/09/15 13:53:24;;;;;;;;;3.25;3.25;;;;;;;;6309400;22;45877;-75
2023/09/15 13:55:49;;;;;;;;;4.75;3.50;;;;;;;;6309232;22;45402;-74
2023/09/15 13:58:15;;;;;;;;;1.00;1.00;;;;;;;;6308923;22;45314;-75
2023/09/15 14:00:41;;;;;;;;;4.20;3.40;;;;;;;;6309783;22;45168;-75
2023/09/15 14:03:07;;;;;;;;;6.80;4.00;;;;;;;;6308667;22;45136;-76
2023/09/15 14:05:34;;;;;;;;;3.00;3.00;;;;;;;;6309191;22;45771;-75
2023/09/15 14:07:59;;;;;;;;;7.60;6.20;;;;;;;;6308408;22;45153;-76
2023/09/15 14:10:24;;;;;;;;;3.00;3.00;;;;;;;;6309120;22;45376;-75
2023/09/15 14:12:49;;;;;;;;;3.75;3.75;;;;;;;;6307272;22;45523;-75
2023/09/15 14:15:15;;;;;;;;;3.00;3.00;;;;;;;;6309100;22;45135;-75
2023/09/15 14:17:41;;;;;;;;;4.00;4.00;;;;;;;;6279789;22;45243;-76
2023/09/15 14:20:06;;;;;;;;;3.00;3.00;;;;;;;;6308588;22;45179;-76
2023/09/15 14:22:32;;;;;;;;;2.00;2.00;;;;;;;;6308407;22;45220;-75
2023/09/15 14:24:58;;;;;;;;;3.00;3.00;;;;;;;;6308370;22;45977;-74